首页
METAR-TAF:

METAR-TAF

机场 :

阿拉德, 罗马尼亚

纬度: 46-12N, 经度: 021-24E, 海拔: 117米

当前天气观测

该预报发布于37分钟前的09:30 UTC
风速4节,风向,在北转东北东南之间变化
温度 15°C
湿度 88%
气压 1014 hPa
能见度10公里或以上
少量云层高于700英尺
散云层高于1000英尺
多云层高于1900英尺

METAR: LRAR 010930Z 08004KT 030V130 9999 FEW007 SCT010 BKN019 15/13 Q1014 R09/19//95

时间: 13:07 (10:07 UTC)

预报

该预报发布于2小时和7分钟前的08:00 UTC
预报有效从01日的 09点(UTC)到 01日的 18点(UTC)
风速4节,风向多变
能見度: 5000
多云层高于500英尺
多云层高于2500英尺
小毛毛雨, 轻雾
成为
从 01日的 10点(UTC)到 01日的 12点(UTC)
风速12节,风向
能见度10公里或以上
散云层高于1000英尺
多云层高于3000英尺
短暂存在
从 01日的 12点(UTC)到 01日的 16点(UTC)
能見度: 5000
散云层高于3500英尺, 积雨云.
多云层高于4000英尺
小阵雨

TAF: LRAR 010800Z 0109/0118 VRB04KT 5000 -DZ BR BKN005 BKN025 BECMG 0110/0112 35012KT 9999 NSW SCT010 BKN030 TEMPO 0112/0116 5000 -SHRA SCT035CB BKN040

超过4000个机场的气象观测和天气预报(METAR&TAF报告)。

可查询的气象台以黄色和红色小点在地图上表示。

将鼠标移到小点上方,可查看气象台名称。

然后点击查看天气观测和预报。

如需切换地图:点击带黑十字的绿色按钮放大地图;点击带横线的绿色按钮缩小地图;或者点击绿色箭头查看邻近地区的地图。


METAR-TAF: